createdAt,value
2019-05-17T00:02:26.630Z,2.23
2019-05-17T00:05:17.725Z,1.03
2019-05-17T00:08:07.751Z,1.80
2019-05-17T00:10:57.021Z,1.47
2019-05-17T00:13:46.597Z,1.70
2019-05-17T00:16:37.524Z,1.63
2019-05-17T00:19:26.323Z,1.20
2019-05-17T00:22:16.761Z,1.40
2019-05-17T00:25:07.311Z,1.50
2019-05-17T00:27:56.477Z,1.40
2019-05-17T00:30:46.449Z,1.17
2019-05-17T00:33:36.691Z,1.33
2019-05-17T00:36:27.485Z,1.03
2019-05-17T00:39:16.647Z,1.10
2019-05-17T00:42:06.936Z,1.27
2019-05-17T00:44:56.518Z,1.00
2019-05-17T00:47:46.843Z,1.80
2019-05-17T00:50:37.956Z,1.20
2019-05-17T00:53:26.897Z,1.10
2019-05-17T00:56:17.189Z,1.20
2019-05-17T00:59:07.491Z,1.10
2019-05-17T01:01:56.277Z,1.23
2019-05-17T01:04:44.582Z,1.70
2019-05-17T01:07:33.414Z,1.20
2019-05-17T01:10:21.890Z,1.13
2019-05-17T01:13:09.959Z,1.03
2019-05-17T01:15:58.162Z,1.20
2019-05-17T01:18:47.003Z,1.05
2019-05-17T01:21:36.858Z,1.00
2019-05-17T01:24:27.305Z,1.40
2019-05-17T01:27:17.048Z,1.10
2019-05-17T01:30:09.306Z,1.17
2019-05-17T01:32:57.490Z,1.02
2019-05-17T01:35:46.641Z,1.00
2019-05-17T01:38:37.685Z,1.00
2019-05-17T01:41:26.706Z,1.10
2019-05-17T01:43:57.944Z,1.40
2019-05-17T01:46:46.581Z,1.10
2019-05-17T01:49:36.327Z,1.57
2019-05-17T01:52:27.186Z,1.43
2019-05-17T01:55:17.198Z,1.00
2019-05-17T01:58:07.008Z,1.17
2019-05-17T02:00:57.166Z,1.97
2019-05-17T02:03:46.896Z,1.30
2019-05-17T02:06:36.569Z,1.30
2019-05-17T02:09:35.013Z,1.20
2019-05-17T02:12:13.926Z,1.60
2019-05-17T02:15:02.461Z,1.37
2019-05-17T02:17:50.931Z,1.40
2019-05-17T02:20:39.251Z,1.30
2019-05-17T02:23:27.613Z,1.50
2019-05-17T02:26:17.357Z,1.37
2019-05-17T02:29:05.562Z,1.07
2019-05-17T02:31:56.334Z,1.77
2019-05-17T02:34:44.684Z,1.40
2019-05-17T02:37:33.527Z,1.57
2019-05-17T02:40:22.740Z,1.60
2019-05-17T02:43:13.283Z,1.50
2019-05-17T02:46:03.610Z,2.63
2019-05-17T02:48:53.903Z,1.32
2019-05-17T02:51:43.122Z,1.70
2019-05-17T02:54:32.869Z,1.43
2019-05-17T02:57:23.250Z,1.47
2019-05-17T03:00:13.384Z,1.43
2019-05-17T03:03:03.394Z,2.10
2019-05-17T03:05:53.650Z,1.80
2019-05-17T03:08:42.950Z,1.30
2019-05-17T03:11:33.377Z,2.00
2019-05-17T03:14:22.963Z,1.50
2019-05-17T03:17:14.122Z,1.47
2019-05-17T03:20:03.978Z,1.50
2019-05-17T03:22:52.651Z,1.43
2019-05-17T03:25:44.061Z,1.50
2019-05-17T03:28:33.771Z,1.20
2019-05-17T03:31:26.299Z,1.60
2019-05-17T03:34:17.075Z,1.20
2019-05-17T03:37:06.660Z,1.10
2019-05-17T03:39:53.590Z,1.90
2019-05-17T03:42:42.832Z,3.20
2019-05-17T03:45:14.287Z,3.65
2019-05-17T03:48:04.932Z,3.00
2019-05-17T03:50:53.093Z,2.97
2019-05-17T03:53:44.273Z,2.23
2019-05-17T03:56:33.151Z,1.93
2019-05-17T03:59:24.195Z,2.40
2019-05-17T04:02:12.399Z,1.87
2019-05-17T04:05:04.277Z,1.67
2019-05-17T04:07:53.639Z,1.80
2019-05-17T04:10:42.594Z,1.70
2019-05-17T04:13:33.571Z,1.90
2019-05-17T04:16:23.621Z,1.80
2019-05-17T04:19:13.617Z,1.85
2019-05-17T04:22:03.484Z,1.70
2019-05-17T04:24:52.518Z,1.67
2019-05-17T04:27:43.172Z,1.90
2019-05-17T04:30:32.296Z,1.30
2019-05-17T04:33:19.239Z,1.45
2019-05-17T04:36:07.971Z,1.80
2019-05-17T04:38:56.053Z,2.40
2019-05-17T04:41:49.827Z,1.50
2019-05-17T04:44:34.434Z,1.57
2019-05-17T04:47:23.112Z,1.90
2019-05-17T04:50:13.572Z,1.80
2019-05-17T04:53:02.812Z,1.90
2019-05-17T04:55:54.027Z,1.82
2019-05-17T04:58:42.982Z,1.90
2019-05-17T05:01:32.934Z,1.77
2019-05-17T05:04:22.620Z,1.60
2019-05-17T05:07:13.680Z,1.80
2019-05-17T05:10:03.033Z,1.77
2019-05-17T05:12:52.430Z,1.53
2019-05-17T05:15:43.973Z,1.87
2019-05-17T05:18:33.136Z,1.90
2019-05-17T05:21:23.048Z,1.97
2019-05-17T05:24:11.639Z,1.83
2019-05-17T05:26:59.845Z,1.97
2019-05-17T05:29:48.167Z,1.90
2019-05-17T05:32:36.838Z,1.93
2019-05-17T05:35:25.138Z,1.83
2019-05-17T05:38:13.494Z,1.93
2019-05-17T05:41:02.023Z,1.83
2019-05-17T05:43:52.596Z,1.40
2019-05-17T05:46:24.156Z,1.57
2019-05-17T05:49:12.482Z,1.70
2019-05-17T05:52:02.055Z,2.23
2019-05-17T05:54:52.043Z,1.73
2019-05-17T05:57:41.897Z,1.77
2019-05-17T06:00:33.018Z,2.30
2019-05-17T06:03:22.509Z,1.97
2019-05-17T06:06:13.870Z,1.87
2019-05-17T06:09:02.737Z,2.20
2019-05-17T06:11:51.948Z,1.80
2019-05-17T06:14:41.712Z,2.30
2019-05-17T06:17:32.523Z,1.80
2019-05-17T06:20:23.835Z,1.90
2019-05-17T06:23:12.591Z,1.90
2019-05-17T06:26:04.088Z,2.47
2019-05-17T06:28:52.276Z,2.33
2019-05-17T06:31:43.380Z,2.13
2019-05-17T06:34:32.855Z,1.97
2019-05-17T06:37:25.689Z,2.60
2019-05-17T06:40:18.583Z,2.90
2019-05-17T06:43:14.596Z,2.80
2019-05-17T06:49:35.737Z,3.10
2019-05-17T06:52:39.883Z,4.00
2019-05-17T06:55:31.496Z,4.23
2019-05-17T06:58:24.402Z,5.03
2019-05-17T07:04:52.288Z,6.60
2019-05-17T07:08:11.059Z,10.80
2019-05-17T07:11:31.756Z,13.90
2019-05-17T07:14:29.394Z,17.23
2019-05-17T07:17:19.606Z,16.93
2019-05-17T07:20:10.062Z,19.10
2019-05-17T07:23:00.599Z,18.67
2019-05-17T07:25:50.516Z,18.83
2019-05-17T07:28:40.446Z,18.70
2019-05-17T07:31:29.742Z,19.93
2019-05-17T07:34:19.964Z,17.67
2019-05-17T07:37:10.527Z,18.63
2019-05-17T07:40:04.753Z,13.43
2019-05-17T07:42:50.090Z,14.70
2019-05-17T07:45:40.596Z,13.68
2019-05-17T07:48:31.086Z,12.30
2019-05-17T07:51:19.520Z,12.93
2019-05-17T07:54:10.295Z,11.80
2019-05-17T07:57:00.234Z,10.50
2019-05-17T07:59:47.636Z,10.77
2019-05-17T08:02:35.694Z,11.40
2019-05-17T08:05:24.062Z,10.40
2019-05-17T08:08:14.404Z,8.55
2019-05-17T08:11:02.637Z,10.20
2019-05-17T08:13:50.881Z,8.50
2019-05-17T08:16:39.571Z,8.83
2019-05-17T08:19:29.740Z,8.45
2019-05-17T08:22:20.323Z,8.30
2019-05-17T08:25:10.191Z,7.10
2019-05-17T08:27:59.465Z,7.23
2019-05-17T08:30:50.194Z,6.90
2019-05-17T08:33:37.938Z,7.80
2019-05-17T08:36:26.511Z,6.50
2019-05-17T08:39:15.253Z,7.00
2019-05-17T08:42:05.421Z,6.40
2019-05-17T08:44:53.791Z,6.70
2019-05-17T08:47:42.056Z,6.33
2019-05-17T08:50:30.554Z,6.97
2019-05-17T08:53:19.892Z,7.43
2019-05-17T08:56:09.984Z,5.97
2019-05-17T08:59:00.515Z,6.60
2019-05-17T09:01:50.600Z,7.80
2019-05-17T09:04:40.528Z,6.03
2019-05-17T09:07:29.513Z,6.63
2019-05-17T09:10:20.806Z,5.53
2019-05-17T09:13:12.405Z,6.63
2019-05-17T09:18:42.068Z,6.53
2019-05-17T09:21:31.332Z,5.53
2019-05-17T09:24:20.210Z,6.20
2019-05-17T09:27:10.144Z,6.70
2019-05-17T09:30:00.045Z,5.10
2019-05-17T09:32:50.360Z,6.10
2019-05-17T09:35:40.798Z,6.00
2019-05-17T09:38:29.547Z,6.20
2019-05-17T09:41:20.020Z,6.00
2019-05-17T09:44:15.585Z,6.83
2019-05-17T09:46:59.473Z,6.60
2019-05-17T09:49:50.120Z,7.00
2019-05-17T09:52:40.566Z,6.10
2019-05-17T09:55:30.126Z,6.30
2019-05-17T09:58:21.410Z,5.57
2019-05-17T10:01:09.440Z,5.80
2019-05-17T10:03:59.891Z,5.50
2019-05-17T10:06:48.348Z,4.70
2019-05-17T10:09:36.558Z,5.43
2019-05-17T10:12:24.772Z,5.37
2019-05-17T10:15:14.003Z,5.42
2019-05-17T10:18:03.780Z,4.77
2019-05-17T10:20:52.449Z,5.10
2019-05-17T10:23:40.880Z,4.73
2019-05-17T10:26:30.403Z,4.63
2019-05-17T10:29:18.877Z,4.73
2019-05-17T10:32:07.339Z,5.57
2019-05-17T10:34:57.005Z,4.37
2019-05-17T10:37:45.249Z,5.30
2019-05-17T10:40:33.623Z,5.80
2019-05-17T10:43:22.206Z,5.00
2019-05-17T10:46:10.978Z,4.70
2019-05-17T10:48:59.656Z,5.80
2019-05-17T10:51:49.437Z,5.43
2019-05-17T10:54:40.096Z,9.03
2019-05-17T10:57:46.118Z,23.95
2019-05-17T11:00:52.588Z,27.20
2019-05-17T11:03:59.543Z,25.47
2019-05-17T11:07:06.938Z,21.40
2019-05-17T11:10:15.072Z,19.30
2019-05-17T11:13:21.467Z,20.17
2019-05-17T11:16:28.156Z,15.53
2019-05-17T11:19:35.599Z,15.53
2019-05-17T11:22:42.168Z,16.53
2019-05-17T11:25:49.009Z,12.93
2019-05-17T11:28:55.882Z,14.43
2019-05-17T11:32:03.156Z,11.90
2019-05-17T11:35:10.823Z,12.53
2019-05-17T11:38:18.386Z,11.77
2019-05-17T11:41:25.526Z,11.80
2019-05-17T11:44:32.249Z,12.40
2019-05-17T11:47:38.885Z,11.90
2019-05-17T11:50:45.680Z,10.70
2019-05-17T11:53:53.959Z,9.00
2019-05-17T11:57:01.443Z,10.93
2019-05-17T12:00:10.776Z,9.10
2019-05-17T12:03:19.837Z,8.83
2019-05-17T12:06:27.423Z,9.60
2019-05-17T12:09:37.486Z,8.83
2019-05-17T12:12:42.298Z,8.40
2019-05-17T12:15:49.167Z,8.27
2019-05-17T12:18:56.506Z,7.93
2019-05-17T12:22:03.879Z,7.27
2019-05-17T12:25:12.415Z,7.40
2019-05-17T12:28:19.507Z,7.13
2019-05-17T12:31:26.441Z,6.70
2019-05-17T12:34:33.746Z,7.10
2019-05-17T12:37:42.525Z,6.87
2019-05-17T12:40:48.506Z,7.70
2019-05-17T12:43:55.520Z,6.67
2019-05-17T12:47:02.611Z,7.30
2019-05-17T12:50:11.935Z,6.70
2019-05-17T12:53:19.021Z,6.97
2019-05-17T12:56:26.002Z,8.00
2019-05-17T12:59:32.864Z,6.40
2019-05-17T13:02:39.592Z,6.90
2019-05-17T13:05:46.549Z,5.83
2019-05-17T13:08:54.110Z,6.30
2019-05-17T13:12:00.578Z,5.83
2019-05-17T13:15:09.025Z,6.13
2019-05-17T13:18:15.984Z,5.53
2019-05-17T13:21:23.263Z,5.87
2019-05-17T13:24:30.351Z,6.30
2019-05-17T13:27:39.193Z,5.10
2019-05-17T13:30:45.502Z,5.13
2019-05-17T13:33:52.708Z,5.87
2019-05-17T13:36:59.996Z,5.97
2019-05-17T13:40:08.195Z,6.80
2019-05-17T13:43:15.107Z,5.73
2019-05-17T13:46:32.879Z,6.20
2019-05-17T13:49:29.944Z,5.67
2019-05-17T13:52:38.009Z,7.40
2019-05-17T13:55:44.904Z,5.83
2019-05-17T13:58:52.343Z,6.23
2019-05-17T14:02:00.977Z,6.07
2019-05-17T14:05:08.692Z,6.85
2019-05-17T14:08:15.162Z,6.60
2019-05-17T14:11:21.683Z,5.27
2019-05-17T14:14:29.020Z,4.50
2019-05-17T14:17:36.261Z,5.00
2019-05-17T14:20:43.498Z,4.67
2019-05-17T14:23:49.790Z,5.83
2019-05-17T14:26:38.450Z,6.07
2019-05-17T14:29:09.381Z,6.30
2019-05-17T14:31:57.539Z,5.37
2019-05-17T14:34:46.116Z,5.30
2019-05-17T14:37:34.342Z,5.43
2019-05-17T14:40:23.632Z,5.47
2019-05-17T14:43:12.241Z,5.42
2019-05-17T14:46:01.856Z,4.40
2019-05-17T14:48:50.124Z,5.20
2019-05-17T14:51:38.679Z,8.27
2019-05-17T14:54:26.795Z,7.80
2019-05-17T14:57:15.399Z,7.25
2019-05-17T15:00:05.733Z,8.50
2019-05-17T15:02:54.185Z,8.43
2019-05-17T15:05:42.513Z,8.43
2019-05-17T15:08:33.663Z,7.90
2019-05-17T15:11:21.951Z,9.35
2019-05-17T15:14:10.312Z,9.50
2019-05-17T15:16:58.487Z,9.43
2019-05-17T15:19:46.778Z,8.27
2019-05-17T15:22:35.218Z,8.60
2019-05-17T15:25:25.942Z,7.90
2019-05-17T15:28:14.267Z,9.33
2019-05-17T15:31:03.680Z,9.40
2019-05-17T15:33:52.078Z,8.43
2019-05-17T15:36:40.696Z,9.15
2019-05-17T15:39:29.639Z,7.53
2019-05-17T15:42:18.322Z,8.50
2019-05-17T15:45:08.303Z,8.90
2019-05-17T15:47:58.828Z,8.77
2019-05-17T15:50:46.783Z,9.10
2019-05-17T15:53:35.724Z,7.63
2019-05-17T15:56:24.296Z,8.93
2019-05-17T15:59:12.518Z,8.83
2019-05-17T16:02:00.839Z,8.13
2019-05-17T16:04:48.943Z,8.67
2019-05-17T16:07:38.432Z,7.93
2019-05-17T16:10:26.682Z,8.00
2019-05-17T16:13:15.712Z,8.23
2019-05-17T16:16:03.929Z,8.75
2019-05-17T16:18:52.442Z,7.20
2019-05-17T16:21:41.206Z,7.00
2019-05-17T16:24:29.790Z,9.27
2019-05-17T16:27:18.586Z,6.77
2019-05-17T16:29:49.394Z,5.67
2019-05-17T16:32:37.971Z,6.63
2019-05-17T16:35:27.210Z,6.53
2019-05-17T16:38:15.375Z,5.97
2019-05-17T16:41:04.273Z,6.63
2019-05-17T16:43:52.769Z,6.40
2019-05-17T16:46:41.213Z,8.30
2019-05-17T16:49:29.708Z,6.23
2019-05-17T16:52:17.933Z,5.40
2019-05-17T16:55:08.074Z,5.63
2019-05-17T16:57:56.425Z,5.87
2019-05-17T17:00:45.781Z,5.47
2019-05-17T17:03:44.260Z,6.30
2019-05-17T17:06:24.859Z,4.83
2019-05-17T17:09:13.315Z,5.70
2019-05-17T17:12:01.722Z,5.70
2019-05-17T17:14:49.838Z,4.50
2019-05-17T17:17:37.972Z,5.40
2019-05-17T17:20:26.866Z,5.80
2019-05-17T17:23:15.722Z,5.33
2019-05-17T17:26:05.245Z,3.90
2019-05-17T17:28:53.336Z,5.20
2019-05-17T17:31:41.593Z,5.50
2019-05-17T17:34:31.423Z,4.87
2019-05-17T17:37:19.828Z,4.93
2019-05-17T17:40:10.098Z,4.10
2019-05-17T17:42:58.598Z,3.83
2019-05-17T17:45:46.833Z,3.87
2019-05-17T17:48:36.139Z,4.97
2019-05-17T17:51:25.392Z,3.80
2019-05-17T17:54:14.667Z,4.00
2019-05-17T17:57:03.553Z,4.80
2019-05-17T17:59:51.951Z,4.30
2019-05-17T18:02:40.225Z,3.80
2019-05-17T18:05:28.823Z,4.17
2019-05-17T18:08:17.030Z,4.80
2019-05-17T18:11:05.514Z,3.93
2019-05-17T18:13:53.780Z,4.30
2019-05-17T18:16:42.368Z,4.57
2019-05-17T18:19:31.084Z,4.27
2019-05-17T18:22:19.464Z,5.17
2019-05-17T18:25:08.285Z,6.07
2019-05-17T18:27:56.471Z,6.10
2019-05-17T18:30:34.337Z,5.93
2019-05-17T18:33:22.777Z,6.03
2019-05-17T18:36:13.570Z,4.90
2019-05-17T18:39:05.457Z,5.35
2019-05-17T18:41:54.862Z,4.40
2019-05-17T18:44:44.019Z,4.93
2019-05-17T18:47:32.391Z,3.77
2019-05-17T18:50:04.141Z,4.58
2019-05-17T18:52:34.783Z,4.25
2019-05-17T18:55:09.784Z,3.80
2019-05-17T18:57:40.581Z,4.00
2019-05-17T19:00:28.803Z,3.58
2019-05-17T19:03:17.235Z,3.63
2019-05-17T19:06:06.100Z,3.58
2019-05-17T19:08:54.467Z,4.00
2019-05-17T19:11:43.017Z,3.90
2019-05-17T19:14:42.467Z,4.30
2019-05-17T19:17:21.149Z,4.17
2019-05-17T19:20:12.113Z,3.30
2019-05-17T19:23:00.223Z,4.87
2019-05-17T19:25:49.977Z,4.73
2019-05-17T19:28:38.165Z,5.20
2019-05-17T19:31:26.927Z,6.57
2019-05-17T19:34:15.299Z,5.50
2019-05-17T19:37:03.485Z,5.77
2019-05-17T19:39:52.207Z,5.20
2019-05-17T19:42:40.356Z,5.30
2019-05-17T19:45:28.736Z,4.60
2019-05-17T19:48:19.670Z,5.20
2019-05-17T19:51:06.542Z,4.33
2019-05-17T19:53:55.719Z,4.47
2019-05-17T19:56:44.094Z,4.50
2019-05-17T19:59:32.391Z,4.22
2019-05-17T20:02:21.344Z,3.40
2019-05-17T20:05:10.929Z,15.53
2019-05-17T20:07:59.034Z,12.63
2019-05-17T20:10:47.688Z,9.80
2019-05-17T20:13:36.063Z,8.87
2019-05-17T20:16:24.341Z,8.63
2019-05-17T20:19:12.522Z,7.77
2019-05-17T20:22:00.673Z,8.20
2019-05-17T20:24:49.924Z,5.87
2019-05-17T20:27:38.527Z,6.93
2019-05-17T20:30:26.895Z,6.05
2019-05-17T20:33:15.333Z,6.70
2019-05-17T20:36:03.498Z,5.73
2019-05-17T20:38:51.953Z,6.67
2019-05-17T20:41:40.823Z,6.20
2019-05-17T20:44:29.211Z,5.20
2019-05-17T20:47:18.172Z,6.20
2019-05-17T20:50:09.061Z,5.50
2019-05-17T20:52:57.283Z,5.63
2019-05-17T20:55:45.998Z,6.70
2019-05-17T20:58:34.595Z,6.40
2019-05-17T21:01:23.054Z,5.20
2019-05-17T21:04:12.329Z,5.13
2019-05-17T21:07:00.622Z,5.03
2019-05-17T21:09:49.048Z,4.90
2019-05-17T21:12:37.310Z,5.00
2019-05-17T21:15:25.773Z,4.30
2019-05-17T21:18:13.977Z,5.03
2019-05-17T21:21:03.243Z,4.33
2019-05-17T21:23:51.646Z,4.20
2019-05-17T21:26:40.022Z,3.80
2019-05-17T21:29:28.640Z,4.80
2019-05-17T21:32:16.715Z,3.40
2019-05-17T21:35:07.822Z,4.23
2019-05-17T21:37:57.059Z,4.20
2019-05-17T21:40:45.179Z,4.20
2019-05-17T21:43:33.513Z,4.00
2019-05-17T21:46:21.905Z,4.10
2019-05-17T21:49:10.503Z,4.50
2019-05-17T21:51:58.918Z,3.47
2019-05-17T21:54:47.311Z,4.30
2019-05-17T21:57:35.937Z,3.10
2019-05-17T22:00:44.302Z,3.63
2019-05-17T22:03:33.021Z,4.20
2019-05-17T22:06:22.736Z,3.73
2019-05-17T22:09:11.564Z,4.00
2019-05-17T22:12:01.918Z,4.07
2019-05-17T22:14:50.288Z,4.50
2019-05-17T22:17:38.648Z,3.87
2019-05-17T22:20:27.447Z,4.00
2019-05-17T22:23:15.931Z,4.07
2019-05-17T22:26:04.501Z,4.27
2019-05-17T22:28:52.801Z,3.03
2019-05-17T22:31:41.139Z,4.40
2019-05-17T22:34:29.905Z,3.50
2019-05-17T22:37:18.545Z,3.80
2019-05-17T22:40:07.735Z,4.07
2019-05-17T22:42:56.448Z,3.20
2019-05-17T22:45:44.695Z,3.70
2019-05-17T22:48:33.363Z,3.83
2019-05-17T22:51:22.299Z,3.07
2019-05-17T22:54:10.844Z,4.08
2019-05-17T22:56:59.458Z,3.93
2019-05-17T22:59:47.928Z,3.67
2019-05-17T23:02:36.548Z,4.03
2019-05-17T23:05:26.566Z,3.90
2019-05-17T23:08:15.155Z,3.30
2019-05-17T23:11:03.276Z,4.07
2019-05-17T23:13:51.517Z,3.33
2019-05-17T23:16:51.133Z,3.90
2019-05-17T23:19:30.821Z,3.23
2019-05-17T23:22:19.255Z,3.30
2019-05-17T23:25:09.567Z,3.90
2019-05-17T23:27:57.761Z,3.00
2019-05-17T23:30:46.197Z,3.83
2019-05-17T23:33:34.877Z,3.03
2019-05-17T23:36:23.231Z,3.57
2019-05-17T23:39:11.529Z,3.27
2019-05-17T23:42:00.606Z,3.97
2019-05-17T23:44:48.995Z,3.80
2019-05-17T23:47:37.695Z,3.70
2019-05-17T23:50:25.889Z,3.20
2019-05-17T23:53:13.971Z,3.60
2019-05-17T23:56:03.490Z,3.03
2019-05-17T23:58:51.656Z,3.07
